Time;durP1;ratioP1;P1;durP2;ratioP2;P2;SDS_P1;SDS_P2;PMS_P1;PMS_P2;Temp;Humidity;BMP_temperature;BMP_pressure;BME280_temperature;BME280_humidity;BME280_pressure;Samples;Min_cycle;Max_cycle;Signal;HPM_P1;HPM_P2
2023/10/19 00:02:07;;;;;;;13.45;8.00;;;9.20;80.30;;;;;;5010675;28;20065;-76
2023/10/19 00:04:35;;;;;;;15.93;7.90;;;9.20;80.20;;;;;;5027740;28;20138;-76
2023/10/19 00:07:04;;;;;;;15.30;8.17;;;9.20;80.30;;;;;;5027614;28;20057;-76
2023/10/19 00:09:36;;;;;;;15.23;7.47;;;9.20;80.70;;;;;;5027489;28;20050;-76
2023/10/19 00:12:08;;;;;;;15.32;8.48;;;9.20;80.80;;;;;;5027360;28;20057;-76
2023/10/19 00:14:35;;;;;;;16.85;8.13;;;9.20;80.80;;;;;;5027370;28;20101;-76
2023/10/19 00:17:05;;;;;;;14.15;7.80;;;9.10;81.00;;;;;;5026963;28;20550;-76
2023/10/19 00:19:38;;;;;;;16.00;8.13;;;9.10;81.20;;;;;;5010563;28;20046;-76
2023/10/19 00:22:15;;;;;;;15.13;8.27;;;9.10;81.20;;;;;;5021290;28;20058;-76
2023/10/19 00:24:44;;;;;;;15.70;8.18;;;9.10;81.10;;;;;;5014463;28;20052;-76
2023/10/19 00:27:15;;;;;;;16.15;7.88;;;9.00;81.60;;;;;;5027275;28;20652;-76
2023/10/19 00:29:49;;;;;;;15.48;8.38;;;9.10;81.70;;;;;;5026774;28;20054;-76
2023/10/19 00:32:17;;;;;;;14.13;8.07;;;9.10;81.70;;;;;;5004952;28;21089;-76
2023/10/19 00:34:51;;;;;;;15.55;8.63;;;9.10;82.10;;;;;;5027201;28;20149;-76
2023/10/19 00:37:21;;;;;;;16.15;8.25;;;9.00;82.30;;;;;;5010337;28;20060;-77
2023/10/19 00:39:53;;;;;;;14.45;7.95;;;9.00;82.50;;;;;;5043417;28;20046;-76
2023/10/19 00:42:25;;;;;;;16.60;8.45;;;9.10;82.40;;;;;;5026005;28;20137;-76
2023/10/19 00:45:01;;;;;;;15.87;8.00;;;9.00;82.80;;;;;;5026717;28;20058;-76
2023/10/19 00:47:35;;;;;;;14.52;8.65;;;9.10;82.90;;;;;;5006692;28;20054;-77
2023/10/19 00:50:05;;;;;;;17.35;8.90;;;9.10;82.50;;;;;;4991608;28;20138;-76
2023/10/19 00:52:41;;;;;;;16.63;8.63;;;9.10;82.70;;;;;;5003218;28;20152;-76
2023/10/19 00:55:09;;;;;;;18.17;8.45;;;9.10;83.20;;;;;;4990186;28;20047;-76
2023/10/19 00:57:41;;;;;;;15.97;8.37;;;9.10;83.00;;;;;;4990319;28;20579;-76
2023/10/19 01:00:12;;;;;;;16.67;8.60;;;9.10;83.20;;;;;;4996209;28;20097;-76
2023/10/19 01:02:45;;;;;;;18.55;9.75;;;9.10;83.40;;;;;;5043167;28;20054;-76
2023/10/19 01:05:13;;;;;;;17.73;8.75;;;9.10;83.20;;;;;;5025820;28;20136;-76
2023/10/19 01:07:41;;;;;;;17.92;8.93;;;9.10;83.40;;;;;;5026704;28;20049;-76
2023/10/19 01:10:11;;;;;;;15.93;8.57;;;9.20;83.40;;;;;;5027901;28;20053;-76
2023/10/19 01:12:40;;;;;;;17.55;9.07;;;9.20;83.30;;;;;;5009540;28;20050;-76
2023/10/19 01:15:12;;;;;;;17.27;9.25;;;9.20;83.20;;;;;;5013584;28;20060;-76
2023/10/19 01:17:40;;;;;;;14.13;7.88;;;9.20;83.20;;;;;;5011734;28;20045;-76
2023/10/19 01:20:17;;;;;;;16.80;9.07;;;9.20;83.40;;;;;;5046652;28;20731;-76
2023/10/19 01:22:53;;;;;;;18.63;9.53;;;9.20;83.80;;;;;;5029554;28;20383;-76
2023/10/19 01:25:24;;;;;;;15.40;8.68;;;9.20;83.60;;;;;;5012842;28;20180;-76
2023/10/19 01:27:57;;;;;;;16.35;9.10;;;9.20;83.60;;;;;;5007613;28;20519;-76
2023/10/19 01:30:24;;;;;;;16.58;8.43;;;9.20;83.90;;;;;;5012267;28;20493;-76
2023/10/19 01:32:51;;;;;;;16.17;8.63;;;9.20;83.60;;;;;;5029711;28;20121;-76
2023/10/19 01:35:18;;;;;;;19.00;9.40;;;9.20;83.70;;;;;;5024242;28;20504;-76
2023/10/19 01:37:44;;;;;;;17.17;9.77;;;9.20;83.90;;;;;;5014725;28;20124;-76
2023/10/19 01:40:20;;;;;;;16.67;9.40;;;9.20;83.90;;;;;;5013547;28;20459;-76
2023/10/19 01:42:47;;;;;;;14.95;8.13;;;9.20;83.70;;;;;;5028795;28;20046;-76
2023/10/19 01:45:14;;;;;;;15.60;8.70;;;9.20;84.10;;;;;;5012557;28;20046;-76
2023/10/19 01:47:42;;;;;;;14.85;8.23;;;9.20;83.90;;;;;;5009224;28;20266;-76
2023/10/19 01:50:19;;;;;;;14.88;7.53;;;9.20;84.00;;;;;;4992864;28;20483;-76
2023/10/19 01:52:51;;;;;;;16.25;8.30;;;9.20;84.00;;;;;;4993783;28;20050;-76
2023/10/19 01:55:20;;;;;;;13.55;7.90;;;9.20;84.00;;;;;;5045537;28;20120;-76
2023/10/19 01:57:47;;;;;;;13.70;7.97;;;9.20;84.10;;;;;;5029419;28;20725;-76
2023/10/19 02:00:22;;;;;;;12.93;7.63;;;9.20;84.50;;;;;;5012484;28;20702;-76
2023/10/19 02:02:50;;;;;;;14.73;7.18;;;9.20;84.50;;;;;;5025920;28;20047;-75
2023/10/19 02:05:18;;;;;;;12.88;6.88;;;9.20;84.50;;;;;;4992921;28;20111;-76
2023/10/19 02:07:44;;;;;;;12.13;6.95;;;9.30;84.40;;;;;;5009565;28;20658;-76
2023/10/19 02:10:12;;;;;;;11.73;7.33;;;9.30;84.00;;;;;;4993032;28;20188;-76
2023/10/19 02:12:42;;;;;;;11.07;7.05;;;9.30;84.20;;;;;;5008454;28;20050;-76
2023/10/19 02:15:09;;;;;;;13.07;7.07;;;9.20;84.20;;;;;;5012111;28;20513;-76
2023/10/19 02:17:35;;;;;;;11.90;6.57;;;9.30;84.30;;;;;;5012377;28;20145;-76
2023/10/19 02:20:13;;;;;;;11.67;6.80;;;9.30;84.70;;;;;;5012318;28;20439;-76
2023/10/19 02:22:40;;;;;;;10.48;6.32;;;9.30;84.60;;;;;;5012362;28;20049;-76
2023/10/19 02:25:06;;;;;;;11.50;6.68;;;9.40;84.40;;;;;;5020858;28;20082;-76
2023/10/19 02:27:33;;;;;;;11.07;6.20;;;9.40;84.50;;;;;;5028109;28;20135;-76
2023/10/19 02:30:04;;;;;;;10.85;5.65;;;9.40;84.20;;;;;;5010597;28;20049;-76
2023/10/19 02:32:33;;;;;;;11.30;6.40;;;9.40;84.20;;;;;;5012249;28;20050;-76
2023/10/19 02:35:01;;;;;;;10.40;6.40;;;9.30;84.30;;;;;;5011738;28;20771;-76
2023/10/19 02:37:28;;;;;;;10.70;5.90;;;9.30;84.60;;;;;;5028635;28;20056;-76
2023/10/19 02:39:55;;;;;;;10.95;6.05;;;9.20;84.60;;;;;;5008427;28;20055;-76
2023/10/19 02:42:22;;;;;;;11.70;6.53;;;9.20;84.60;;;;;;4992900;28;20051;-76
2023/10/19 02:44:50;;;;;;;12.50;6.23;;;9.20;85.20;;;;;;5022753;28;20072;-76
2023/10/19 02:47:17;;;;;;;10.63;5.85;;;9.30;85.20;;;;;;5007206;28;20075;-76
2023/10/19 02:49:51;;;;;;;10.63;5.90;;;9.30;85.00;;;;;;5009187;28;20050;-76
2023/10/19 02:52:17;;;;;;;10.70;6.18;;;9.30;85.20;;;;;;5002444;28;20052;-76
2023/10/19 02:54:44;;;;;;;11.25;5.57;;;9.30;85.30;;;;;;5028014;28;20054;-76
2023/10/19 02:57:13;;;;;;;11.30;6.00;;;9.30;85.40;;;;;;5028305;28;20050;-76
2023/10/19 02:59:40;;;;;;;10.10;5.53;;;9.30;85.80;;;;;;5011709;28;20049;-76
2023/10/19 03:02:07;;;;;;;10.07;5.50;;;9.40;85.70;;;;;;5003438;28;20117;-76
2023/10/19 03:04:35;;;;;;;11.73;6.38;;;9.40;85.50;;;;;;5012500;28;20132;-76
2023/10/19 03:07:02;;;;;;;10.07;5.70;;;9.40;85.20;;;;;;5028015;28;20054;-75
2023/10/19 03:09:29;;;;;;;10.50;6.27;;;9.40;85.30;;;;;;5011829;28;20057;-76
2023/10/19 03:11:59;;;;;;;9.75;5.85;;;9.40;85.30;;;;;;5011323;28;20053;-76
2023/10/19 03:14:26;;;;;;;10.23;5.60;;;9.40;85.70;;;;;;5028087;28;20050;-75
2023/10/19 03:16:54;;;;;;;10.38;6.03;;;9.40;85.80;;;;;;5027347;28;20050;-75
2023/10/19 03:19:21;;;;;;;10.18;5.57;;;9.40;85.80;;;;;;5028001;28;20149;-76
2023/10/19 03:21:49;;;;;;;9.87;5.73;;;9.40;85.60;;;;;;5028704;28;20056;-76
2023/10/19 03:24:35;;;;;;;9.05;5.10;;;9.40;85.70;;;;;;5010666;28;20077;-76
2023/10/19 03:27:01;;;;;;;8.82;4.78;;;9.40;85.90;;;;;;5008111;28;20623;-76
2023/10/19 03:29:31;;;;;;;9.25;5.30;;;9.40;86.00;;;;;;5006949;28;20133;-76
2023/10/19 03:31:59;;;;;;;8.53;4.87;;;9.40;86.10;;;;;;5000507;28;20137;-76
2023/10/19 03:34:26;;;;;;;8.52;4.82;;;9.40;86.00;;;;;;5009116;28;20281;-76
2023/10/19 03:36:54;;;;;;;9.05;5.25;;;9.40;85.80;;;;;;5007843;28;20050;-76
2023/10/19 03:39:22;;;;;;;9.18;4.97;;;9.40;85.70;;;;;;4988955;28;20137;-76
2023/10/19 03:41:51;;;;;;;9.18;5.28;;;9.50;85.90;;;;;;5006424;28;20050;-76
2023/10/19 03:44:19;;;;;;;11.13;5.70;;;9.40;85.90;;;;;;5009307;28;20042;-76
2023/10/19 03:46:56;;;;;;;8.05;5.47;;;9.50;85.90;;;;;;5027107;28;20862;-76
2023/10/19 03:49:26;;;;;;;9.20;5.25;;;9.50;85.80;;;;;;5010933;28;20543;-76
2023/10/19 03:52:02;;;;;;;9.93;5.63;;;9.50;85.70;;;;;;5010624;28;20042;-76
2023/10/19 03:54:32;;;;;;;9.63;5.43;;;9.50;85.70;;;;;;5010376;28;20050;-76
2023/10/19 03:57:05;;;;;;;9.57;5.83;;;9.50;85.90;;;;;;5029021;28;20054;-76
2023/10/19 03:59:34;;;;;;;10.32;5.75;;;9.50;86.00;;;;;;5009503;28;20329;-76
2023/10/19 04:02:07;;;;;;;10.55;5.75;;;9.50;86.00;;;;;;5027144;28;20081;-76
2023/10/19 04:04:34;;;;;;;10.70;5.82;;;9.50;85.80;;;;;;5026807;28;20507;-75
2023/10/19 04:07:10;;;;;;;8.93;4.95;;;9.50;85.80;;;;;;5026984;28;20053;-76
2023/10/19 04:09:57;;;;;;;10.83;5.80;;;9.50;85.90;;;;;;5028098;28;20053;-76
2023/10/19 04:12:24;;;;;;;9.10;5.13;;;9.50;85.80;;;;;;5029142;28;20755;-76
2023/10/19 04:14:51;;;;;;;9.52;5.28;;;9.50;86.10;;;;;;5026581;28;20623;-76
2023/10/19 04:17:21;;;;;;;10.13;5.75;;;9.50;85.90;;;;;;5022803;28;20054;-76
2023/10/19 04:19:48;;;;;;;9.20;5.32;;;9.50;85.90;;;;;;5027040;28;20054;-76
2023/10/19 04:22:22;;;;;;;9.67;5.53;;;9.50;85.80;;;;;;5026739;28;20112;-76
2023/10/19 04:24:49;;;;;;;11.02;6.20;;;9.50;86.10;;;;;;5026542;28;20376;-76
2023/10/19 04:27:16;;;;;;;10.10;6.05;;;9.50;86.20;;;;;;5042736;28;20059;-76
2023/10/19 04:29:45;;;;;;;9.88;5.63;;;9.50;86.20;;;;;;5028124;28;20099;-76
2023/10/19 04:32:14;;;;;;;10.02;6.25;;;9.50;86.20;;;;;;5026731;28;20504;-75
2023/10/19 04:34:41;;;;;;;9.43;5.67;;;9.50;86.30;;;;;;5025492;28;20140;-75
2023/10/19 04:37:12;;;;;;;9.85;5.72;;;9.50;86.20;;;;;;5026720;28;20277;-76
2023/10/19 04:39:41;;;;;;;10.55;5.60;;;9.50;86.20;;;;;;5011929;28;20054;-75
2023/10/19 04:42:08;;;;;;;9.80;5.82;;;9.60;86.30;;;;;;5007271;28;20050;-76
2023/10/19 04:44:35;;;;;;;10.15;5.80;;;9.60;86.20;;;;;;5022311;28;20046;-76
2023/10/19 04:47:02;;;;;;;10.50;5.63;;;9.60;86.30;;;;;;5026710;28;20087;-76
2023/10/19 04:49:29;;;;;;;9.43;6.00;;;9.60;86.30;;;;;;5015544;28;20254;-76
2023/10/19 04:51:56;;;;;;;10.63;5.70;;;9.60;86.30;;;;;;5017587;28;20735;-76
2023/10/19 04:54:23;;;;;;;11.15;5.90;;;9.60;86.50;;;;;;5042237;28;20076;-75
2023/10/19 04:57:16;;;;;;;9.85;6.20;;;9.60;86.50;;;;;;5026430;28;20597;-76
2023/10/19 04:59:45;;;;;;;9.90;5.77;;;9.60;86.60;;;;;;5024826;28;20085;-76
2023/10/19 05:02:12;;;;;;;10.82;5.88;;;9.60;86.70;;;;;;5042556;28;20862;-76
2023/10/19 05:04:40;;;;;;;10.55;5.97;;;9.70;86.50;;;;;;5026229;28;20446;-76
2023/10/19 05:07:11;;;;;;;8.55;5.45;;;9.70;86.50;;;;;;5026268;28;20125;-75
2023/10/19 05:09:39;;;;;;;9.15;5.25;;;9.70;86.50;;;;;;5026331;28;20058;-75
2023/10/19 05:12:09;;;;;;;10.13;5.73;;;9.70;86.50;;;;;;5017751;28;20638;-76
2023/10/19 05:14:37;;;;;;;9.73;5.75;;;9.70;86.60;;;;;;5020792;28;20274;-76
2023/10/19 05:17:05;;;;;;;9.68;5.80;;;9.70;86.60;;;;;;5018321;28;20535;-76
2023/10/19 05:19:32;;;;;;;11.15;6.10;;;9.70;86.70;;;;;;5017622;28;20521;-76
2023/10/19 05:22:00;;;;;;;9.38;5.70;;;9.70;86.70;;;;;;5017626;28;20204;-75
2023/10/19 05:24:28;;;;;;;9.13;5.23;;;9.80;86.70;;;;;;5018773;28;20940;-75
2023/10/19 05:26:55;;;;;;;9.70;5.78;;;9.80;86.70;;;;;;5019173;28;20913;-75
2023/10/19 05:29:22;;;;;;;9.45;5.28;;;9.80;86.60;;;;;;5041472;28;20042;-75
2023/10/19 05:31:53;;;;;;;8.77;5.28;;;9.80;86.50;;;;;;5009772;28;20141;-76
2023/10/19 05:34:20;;;;;;;9.35;5.68;;;9.80;86.70;;;;;;5027112;28;20487;-77
2023/10/19 05:36:48;;;;;;;10.17;5.90;;;9.80;86.70;;;;;;5012910;28;20093;-75
2023/10/19 05:39:15;;;;;;;9.35;5.53;;;9.80;86.60;;;;;;5005956;28;20915;-75
2023/10/19 05:41:43;;;;;;;8.35;5.53;;;9.80;86.60;;;;;;5015538;28;20125;-75
2023/10/19 05:44:10;;;;;;;8.55;5.30;;;9.80;86.70;;;;;;5014931;28;20134;-75
2023/10/19 05:46:37;;;;;;;8.30;4.75;;;9.80;86.80;;;;;;5032436;28;20066;-75
2023/10/19 05:49:06;;;;;;;9.20;5.53;;;9.80;86.80;;;;;;5014085;28;20053;-75
2023/10/19 05:51:33;;;;;;;8.25;5.07;;;9.90;86.70;;;;;;5018571;28;20249;-75
2023/10/19 05:54:02;;;;;;;9.05;5.40;;;9.90;86.70;;;;;;5016613;28;20054;-75
2023/10/19 05:56:30;;;;;;;8.70;5.00;;;9.90;86.80;;;;;;5015225;28;20125;-75
2023/10/19 05:58:57;;;;;;;8.98;5.53;;;9.90;86.90;;;;;;5032672;28;20054;-75
2023/10/19 06:01:24;;;;;;;10.13;5.60;;;9.90;87.00;;;;;;5017701;28;20465;-75
2023/10/19 06:03:51;;;;;;;8.55;5.28;;;9.90;86.90;;;;;;5024826;28;20368;-75
2023/10/19 06:06:20;;;;;;;7.75;4.82;;;10.00;86.90;;;;;;5018364;28;20107;-75
2023/10/19 06:08:47;;;;;;;9.00;5.65;;;10.00;87.00;;;;;;5042728;28;20064;-75
2023/10/19 06:11:16;;;;;;;8.90;5.50;;;10.00;86.90;;;;;;5028870;28;20056;-75
2023/10/19 06:13:43;;;;;;;8.40;5.37;;;10.00;86.90;;;;;;5028990;28;20058;-76
2023/10/19 06:16:10;;;;;;;8.73;5.35;;;10.00;86.90;;;;;;5024530;28;20257;-76
2023/10/19 06:18:37;;;;;;;7.88;5.13;;;10.00;86.80;;;;;;5010562;28;20056;-76
2023/10/19 06:21:05;;;;;;;7.68;5.03;;;10.00;87.00;;;;;;5027161;28;20072;-76
2023/10/19 06:23:34;;;;;;;8.10;5.30;;;10.00;87.00;;;;;;5009263;28;20145;-76
2023/10/19 06:26:04;;;;;;;8.23;4.87;;;10.00;86.90;;;;;;5026930;28;20068;-76
2023/10/19 06:28:34;;;;;;;8.23;4.72;;;10.00;87.00;;;;;;5026034;28;20269;-76
2023/10/19 06:31:01;;;;;;;7.25;4.65;;;10.00;86.90;;;;;;5027039;28;20061;-76
2023/10/19 06:33:28;;;;;;;8.15;5.00;;;10.00;87.10;;;;;;5026487;28;20049;-76
2023/10/19 06:35:55;;;;;;;7.35;5.18;;;10.00;87.10;;;;;;5028819;28;20053;-76
2023/10/19 06:38:22;;;;;;;7.53;4.57;;;10.00;87.10;;;;;;5027373;28;20056;-76
2023/10/19 06:40:51;;;;;;;7.20;4.78;;;10.00;87.10;;;;;;5029701;28;20254;-76
2023/10/19 06:43:19;;;;;;;8.18;5.15;;;10.10;87.20;;;;;;5030029;28;20058;-77
2023/10/19 06:45:46;;;;;;;7.50;4.78;;;10.10;87.20;;;;;;5027690;28;20050;-76
2023/10/19 06:48:14;;;;;;;7.95;5.20;;;10.10;87.20;;;;;;5027904;28;20046;-76
2023/10/19 06:50:41;;;;;;;7.73;4.73;;;10.10;87.20;;;;;;5011323;28;20057;-76
2023/10/19 06:53:08;;;;;;;8.25;4.88;;;10.10;87.20;;;;;;5011932;28;20289;-76
2023/10/19 06:55:37;;;;;;;7.53;4.75;;;10.10;87.20;;;;;;5037615;28;20054;-76
2023/10/19 06:58:05;;;;;;;7.05;4.72;;;10.10;87.20;;;;;;5014134;28;20172;-76
2023/10/19 07:00:33;;;;;;;8.40;5.20;;;10.10;87.30;;;;;;5027953;28;20624;-76
2023/10/19 07:03:02;;;;;;;6.90;4.70;;;10.10;87.40;;;;;;5023819;28;20054;-76
2023/10/19 07:05:30;;;;;;;8.60;5.13;;;10.10;87.30;;;;;;5019278;28;20254;-76
2023/10/19 07:07:59;;;;;;;8.40;4.90;;;10.20;87.30;;;;;;5025791;28;20530;-76
2023/10/19 07:10:27;;;;;;;8.65;5.10;;;10.20;87.30;;;;;;5030110;28;20057;-76
2023/10/19 07:12:55;;;;;;;8.05;5.07;;;10.20;87.50;;;;;;5021198;28;20082;-76
2023/10/19 07:15:25;;;;;;;8.13;5.13;;;10.20;87.60;;;;;;5005415;28;20459;-75
2023/10/19 07:17:53;;;;;;;7.68;4.55;;;10.20;87.50;;;;;;5030238;28;20293;-73
2023/10/19 07:20:26;;;;;;;8.55;5.25;;;10.20;87.60;;;;;;5027820;28;20479;-75
2023/10/19 07:22:54;;;;;;;8.20;4.78;;;10.30;87.80;;;;;;5027589;28;20049;-76
2023/10/19 07:25:21;;;;;;;8.85;5.72;;;10.30;87.70;;;;;;5011178;28;20042;-76
2023/10/19 07:27:49;;;;;;;8.67;5.23;;;10.30;87.70;;;;;;5008854;28;20058;-75
2023/10/19 07:30:20;;;;;;;10.75;5.57;;;10.30;87.70;;;;;;5019884;28;20254;-75
2023/10/19 07:32:54;;;;;;;8.85;5.88;;;10.30;87.70;;;;;;5016027;28;20066;-75
2023/10/19 07:35:22;;;;;;;8.50;5.65;;;10.30;87.70;;;;;;5017419;28;20586;-75
2023/10/19 07:37:50;;;;;;;8.30;5.15;;;10.30;87.70;;;;;;5023981;28;20054;-75
2023/10/19 07:40:17;;;;;;;9.23;5.80;;;10.40;87.70;;;;;;5019355;28;20137;-76
2023/10/19 07:42:45;;;;;;;9.52;5.50;;;10.40;87.70;;;;;;5025821;28;21207;-76
2023/10/19 07:45:14;;;;;;;9.20;5.70;;;10.40;87.70;;;;;;5017861;28;20045;-77
2023/10/19 07:47:42;;;;;;;9.27;5.43;;;10.40;87.80;;;;;;5015893;28;20060;-76
2023/10/19 07:50:15;;;;;;;9.32;6.03;;;10.40;87.80;;;;;;5019669;28;20044;-77
2023/10/19 07:52:43;;;;;;;11.53;6.03;;;10.40;87.90;;;;;;5003672;28;20046;-75
2023/10/19 07:55:10;;;;;;;9.98;5.65;;;10.50;88.00;;;;;;5006759;28;20286;-75
2023/10/19 07:57:40;;;;;;;11.35;6.13;;;10.50;87.90;;;;;;5013992;28;20050;-76
2023/10/19 08:00:10;;;;;;;9.65;5.90;;;10.50;87.80;;;;;;5013711;28;20944;-76
2023/10/19 08:02:37;;;;;;;9.85;5.75;;;10.50;87.90;;;;;;5035811;28;20050;-76
2023/10/19 08:05:06;;;;;;;10.27;6.47;;;10.50;87.80;;;;;;5018818;28;20050;-76
2023/10/19 08:07:36;;;;;;;10.02;6.43;;;10.50;87.90;;;;;;5015643;28;20790;-76
2023/10/19 08:10:05;;;;;;;10.00;6.35;;;10.50;87.90;;;;;;5020913;28;20086;-76
2023/10/19 08:12:33;;;;;;;9.90;6.13;;;10.50;88.00;;;;;;5027203;28;20077;-77
2023/10/19 08:15:00;;;;;;;10.70;6.68;;;10.50;88.10;;;;;;5026634;28;20077;-77
2023/10/19 08:17:28;;;;;;;11.37;6.80;;;10.60;88.10;;;;;;5025817;28;20518;-77
2023/10/19 08:19:55;;;;;;;12.35;7.30;;;10.60;88.00;;;;;;5027432;28;20376;-77
2023/10/19 08:22:23;;;;;;;10.20;6.45;;;10.60;88.00;;;;;;5025833;28;21028;-77
2023/10/19 08:24:51;;;;;;;11.57;6.70;;;10.60;88.00;;;;;;5007702;28;20058;-77
2023/10/19 08:27:19;;;;;;;12.57;7.07;;;10.60;88.20;;;;;;5008151;28;20050;-77
2023/10/19 08:29:46;;;;;;;12.40;6.87;;;10.60;88.20;;;;;;5025488;28;20245;-77
2023/10/19 08:32:14;;;;;;;12.57;7.35;;;10.70;88.10;;;;;;5027009;28;20277;-78
2023/10/19 08:34:41;;;;;;;12.38;7.60;;;10.70;88.10;;;;;;5010740;28;20084;-77
2023/10/19 08:37:09;;;;;;;11.57;7.43;;;10.70;88.00;;;;;;5026779;28;20627;-77
2023/10/19 08:39:36;;;;;;;13.55;7.30;;;10.70;87.90;;;;;;5018749;28;20061;-76
2023/10/19 08:42:07;;;;;;;11.93;7.10;;;10.70;88.00;;;;;;5021452;28;20055;-76
2023/10/19 08:44:36;;;;;;;11.80;7.00;;;10.70;87.90;;;;;;5021520;28;20348;-77
2023/10/19 08:47:05;;;;;;;12.68;7.97;;;10.80;87.90;;;;;;5023168;28;20050;-77
2023/10/19 08:49:32;;;;;;;12.13;7.38;;;10.80;88.00;;;;;;5012562;28;20050;-77
2023/10/19 08:52:04;;;;;;;13.38;7.68;;;10.80;88.00;;;;;;5019802;28;20089;-77
2023/10/19 08:54:33;;;;;;;13.63;7.50;;;10.80;88.20;;;;;;5017715;28;20057;-76
2023/10/19 08:57:00;;;;;;;13.27;7.53;;;10.80;88.10;;;;;;5019003;28;20270;-76
2023/10/19 08:59:29;;;;;;;14.30;8.30;;;10.80;88.20;;;;;;5018838;28;20110;-75
2023/10/19 09:02:02;;;;;;;13.13;7.10;;;10.80;88.10;;;;;;5016004;28;20136;-76
2023/10/19 09:04:29;;;;;;;13.32;7.32;;;10.80;88.10;;;;;;5024504;28;20053;-76
2023/10/19 09:06:56;;;;;;;14.20;8.07;;;10.90;88.20;;;;;;5018191;28;20046;-76
2023/10/19 09:09:25;;;;;;;14.75;8.00;;;10.90;88.10;;;;;;5002970;28;20485;-77
2023/10/19 09:11:53;;;;;;;15.20;9.10;;;10.90;88.10;;;;;;5009672;28;20046;-76
2023/10/19 09:14:33;;;;;;;13.65;7.50;;;10.90;88.10;;;;;;5018725;28;20046;-76
2023/10/19 09:17:03;;;;;;;14.23;8.70;;;10.90;88.10;;;;;;5018730;28;20065;-75
2023/10/19 09:19:41;;;;;;;14.73;8.10;;;10.90;88.20;;;;;;5012699;28;21027;-77
2023/10/19 09:22:16;;;;;;;14.45;7.95;;;10.90;88.20;;;;;;5018228;28;20380;-76
2023/10/19 09:24:44;;;;;;;15.05;7.78;;;10.90;88.20;;;;;;5045892;28;20519;-76
2023/10/19 09:27:13;;;;;;;13.90;8.70;;;10.90;88.20;;;;;;5023486;28;20077;-76
2023/10/19 09:29:41;;;;;;;14.55;8.05;;;10.90;88.30;;;;;;5022979;28;20554;-76
2023/10/19 09:32:09;;;;;;;14.17;8.40;;;11.00;88.30;;;;;;5023495;28;20101;-76
2023/10/19 09:34:37;;;;;;;13.75;8.15;;;11.00;88.30;;;;;;5009640;28;20286;-76
2023/10/19 09:37:05;;;;;;;13.30;8.10;;;11.00;88.40;;;;;;5003678;28;20607;-76
2023/10/19 09:39:35;;;;;;;15.10;8.32;;;11.00;88.40;;;;;;5021024;28;21003;-76
2023/10/19 09:42:05;;;;;;;13.85;7.80;;;11.00;88.30;;;;;;5029596;28;20050;-76
2023/10/19 09:44:40;;;;;;;14.13;8.27;;;11.00;88.40;;;;;;5029755;28;20559;-76
2023/10/19 09:47:13;;;;;;;14.93;8.07;;;11.10;88.40;;;;;;5029849;28;20261;-76
2023/10/19 09:49:42;;;;;;;16.38;8.48;;;11.10;88.50;;;;;;5031061;28;20058;-76
2023/10/19 09:52:11;;;;;;;13.48;7.80;;;11.10;88.50;;;;;;5029868;28;20074;-76
2023/10/19 09:54:49;;;;;;;13.80;7.38;;;11.10;88.50;;;;;;5028133;28;20048;-76
2023/10/19 09:57:22;;;;;;;15.30;8.40;;;11.10;88.60;;;;;;5046309;28;20050;-76
2023/10/19 09:59:57;;;;;;;14.07;8.60;;;11.10;88.60;;;;;;5029871;28;21116;-76
2023/10/19 10:02:29;;;;;;;13.85;8.13;;;11.10;88.60;;;;;;5013220;28;20684;-77
2023/10/19 10:04:57;;;;;;;15.57;8.38;;;11.10;88.80;;;;;;5012476;28;20090;-76
2023/10/19 10:07:25;;;;;;;14.07;7.82;;;11.10;88.70;;;;;;5026416;28;20055;-76
2023/10/19 10:09:52;;;;;;;14.93;8.07;;;11.20;88.70;;;;;;5043754;28;20046;-76
2023/10/19 10:12:23;;;;;;;14.10;8.30;;;11.20;88.70;;;;;;4993614;28;20278;-76
2023/10/19 10:14:59;;;;;;;15.60;8.82;;;11.30;88.80;;;;;;5026421;28;20042;-76
2023/10/19 10:17:27;;;;;;;15.18;9.10;;;11.30;88.80;;;;;;5029864;28;20058;-76
2023/10/19 10:19:57;;;;;;;16.38;9.15;;;11.30;88.80;;;;;;5029255;28;20129;-76
2023/10/19 10:22:24;;;;;;;16.33;9.20;;;11.30;88.80;;;;;;5030905;28;20078;-76
2023/10/19 10:24:56;;;;;;;14.90;8.43;;;11.30;88.80;;;;;;5022334;28;20272;-76
2023/10/19 10:27:23;;;;;;;14.15;8.27;;;11.40;88.80;;;;;;5033143;28;20050;-76
2023/10/19 10:29:58;;;;;;;14.88;8.82;;;11.40;88.90;;;;;;5028414;28;20591;-76
2023/10/19 10:32:46;;;;;;;16.08;8.65;;;11.40;88.90;;;;;;5030378;28;20057;-76
2023/10/19 10:35:47;;;;;;;16.37;8.67;;;11.40;89.00;;;;;;5011706;28;20136;-77
2023/10/19 10:38:14;;;;;;;14.90;8.13;;;11.50;89.00;;;;;;5028506;28;20841;-77
2023/10/19 10:40:44;;;;;;;19.52;9.43;;;11.50;89.00;;;;;;5012082;28;20050;-76
2023/10/19 10:43:12;;;;;;;16.30;9.18;;;11.50;89.00;;;;;;5028517;28;20050;-76
2023/10/19 10:45:39;;;;;;;18.48;9.52;;;11.50;89.10;;;;;;5027449;28;20144;-77
2023/10/19 10:48:13;;;;;;;17.03;9.23;;;11.50;89.20;;;;;;5011923;28;20060;-76
2023/10/19 10:50:41;;;;;;;19.35;9.80;;;11.50;89.10;;;;;;5003029;28;20843;-77
2023/10/19 10:53:08;;;;;;;18.33;10.25;;;11.50;89.10;;;;;;5010321;28;20060;-77
2023/10/19 10:55:36;;;;;;;16.52;9.68;;;11.50;89.10;;;;;;5017313;28;20424;-76
2023/10/19 10:58:03;;;;;;;17.23;9.40;;;11.60;89.20;;;;;;5011871;28;20050;-76
2023/10/19 11:00:32;;;;;;;17.03;9.30;;;11.60;89.20;;;;;;5021664;28;20043;-76
2023/10/19 11:03:03;;;;;;;18.17;9.65;;;11.70;89.20;;;;;;4991448;28;20294;-76
2023/10/19 11:05:34;;;;;;;16.60;9.73;;;11.70;89.30;;;;;;5014914;28;20065;-76
2023/10/19 11:08:06;;;;;;;17.58;9.77;;;11.70;89.40;;;;;;5029229;28;20054;-76
2023/10/19 11:10:33;;;;;;;18.23;9.98;;;11.70;89.40;;;;;;5029796;28;20050;-77
2023/10/19 11:13:04;;;;;;;17.40;9.60;;;11.70;89.40;;;;;;5027748;28;20053;-76
2023/10/19 11:15:31;;;;;;;15.73;9.20;;;11.70;89.40;;;;;;5026327;28;20664;-79
2023/10/19 11:17:58;;;;;;;18.02;9.95;;;11.80;89.30;;;;;;5027217;28;20137;-78
2023/10/19 11:20:27;;;;;;;18.40;10.13;;;11.80;89.30;;;;;;5024380;28;20050;-77
2023/10/19 11:22:56;;;;;;;16.75;10.20;;;11.90;89.30;;;;;;5025590;28;20085;-78
2023/10/19 11:25:27;;;;;;;18.10;10.77;;;11.90;89.30;;;;;;5025482;28;21285;-78
2023/10/19 11:27:55;;;;;;;17.02;9.27;;;11.90;89.40;;;;;;5025942;28;20361;-79
2023/10/19 11:30:26;;;;;;;19.85;10.30;;;11.90;89.40;;;;;;5024800;28;20045;-78
2023/10/19 11:32:56;;;;;;;18.08;9.75;;;11.90;89.40;;;;;;5008909;28;20061;-78
2023/10/19 11:35:25;;;;;;;20.48;10.75;;;11.90;89.40;;;;;;5010469;28;20046;-79
2023/10/19 11:37:53;;;;;;;20.23;9.90;;;12.00;89.50;;;;;;5020687;28;20995;-77
2023/10/19 11:40:22;;;;;;;19.67;10.00;;;12.00;89.60;;;;;;5007951;28;20273;-77
2023/10/19 11:42:50;;;;;;;20.30;10.82;;;12.00;89.60;;;;;;5014430;28;20069;-78
2023/10/19 11:45:17;;;;;;;17.27;10.13;;;12.00;89.60;;;;;;5027310;28;20557;-77
2023/10/19 11:47:45;;;;;;;18.63;10.60;;;12.10;89.70;;;;;;5013191;28;21017;-78
2023/10/19 11:50:14;;;;;;;18.83;10.37;;;12.10;89.70;;;;;;5015399;28;20054;-77
2023/10/19 11:52:41;;;;;;;20.02;10.90;;;12.10;89.70;;;;;;5018794;28;20360;-77
2023/10/19 11:55:09;;;;;;;19.13;10.93;;;12.20;90.00;;;;;;5018114;28;20394;-78
2023/10/19 11:57:37;;;;;;;20.08;10.82;;;12.20;90.10;;;;;;5004199;28;20038;-77
2023/10/19 12:00:08;;;;;;;18.45;10.13;;;12.20;90.00;;;;;;5017711;28;20408;-77
2023/10/19 12:02:37;;;;;;;21.00;10.53;;;12.30;90.00;;;;;;5016166;28;20046;-77
2023/10/19 12:05:09;;;;;;;19.23;11.07;;;12.30;89.90;;;;;;5025639;28;20261;-78
2023/10/19 12:07:37;;;;;;;20.48;11.20;;;12.40;90.00;;;;;;5023229;28;20054;-78
2023/10/19 12:10:05;;;;;;;18.42;9.93;;;12.40;90.00;;;;;;5021126;28;20455;-78
2023/10/19 12:12:32;;;;;;;16.73;10.15;;;12.50;89.90;;;;;;5009224;28;20050;-77
2023/10/19 12:15:00;;;;;;;16.27;9.90;;;12.50;89.90;;;;;;5024259;28;20495;-77
2023/10/19 12:17:27;;;;;;;17.27;10.25;;;12.50;89.90;;;;;;5026490;28;20272;-77
2023/10/19 12:19:57;;;;;;;19.30;11.25;;;12.50;90.00;;;;;;5026639;28;20050;-78
2023/10/19 12:22:28;;;;;;;18.98;10.90;;;12.50;89.90;;;;;;5028416;28;20050;-78
2023/10/19 12:24:57;;;;;;;19.75;10.70;;;12.50;89.90;;;;;;5026272;28;20056;-78
2023/10/19 12:27:24;;;;;;;18.70;10.00;;;12.50;90.00;;;;;;5028336;28;20081;-77
2023/10/19 12:29:52;;;;;;;18.98;10.93;;;12.50;90.00;;;;;;5008410;28;20289;-78
2023/10/19 12:32:20;;;;;;;20.27;11.63;;;12.60;89.90;;;;;;5021634;28;20057;-77
2023/10/19 12:34:50;;;;;;;18.17;11.57;;;12.60;90.00;;;;;;5043283;28;20077;-77
2023/10/19 12:37:17;;;;;;;19.80;11.18;;;12.70;89.90;;;;;;5025831;28;20062;-77
2023/10/19 12:39:48;;;;;;;18.83;11.40;;;12.70;89.80;;;;;;5009376;28;20058;-78
2023/10/19 12:42:16;;;;;;;19.00;11.13;;;12.70;89.80;;;;;;5040201;28;20671;-78
2023/10/19 12:44:43;;;;;;;21.08;12.27;;;12.70;89.90;;;;;;5026525;28;20046;-78
2023/10/19 12:47:12;;;;;;;21.15;12.70;;;12.80;89.70;;;;;;5026925;28;20060;-78
2023/10/19 12:49:41;;;;;;;18.80;11.32;;;12.70;89.70;;;;;;4997135;28;20186;-77
2023/10/19 12:52:10;;;;;;;20.27;12.13;;;12.80;89.60;;;;;;5026040;28;20116;-78
2023/10/19 12:54:37;;;;;;;16.77;10.77;;;12.70;89.50;;;;;;5035480;28;20748;-77